.
WxDataArchive / Data Records for 2015-11-03
2015-11-02 November 2015 2015-11-04

Data Records for Tuesday, 03 November 2015

Time	Temp	Chill	HIndex	Humid	Dewpt	 Wind 	HiWind	WindDir	Rain 	Barom
-----	----	-----	------	-----	-----	------	------	-------	-----	-----
00:00	45.5	45.5	45.5	91	43.0	0	0	---	0.00	30.043 
00:05	45.4	45.4	45.4	91	42.9	0	0	---	0.00	30.043 
00:10	45.2	45.2	45.2	91	42.7	0	0	---	0.00	30.043 
00:15	45.1	45.1	45.1	91	42.6	0	0	---	0.00	30.046 
00:20	45.1	45.1	45.1	91	42.6	0	0	---	0.00	30.046 
00:25	44.9	44.9	44.9	91	42.4	0	0	---	0.00	30.046 
00:30	44.9	44.9	44.9	91	42.4	0	0	---	0.00	30.051 
00:35	44.9	44.9	44.9	91	42.4	0	0	---	0.00	30.051 
00:40	44.8	44.8	44.8	91	42.3	0	0	---	0.00	30.051 
00:45	44.6	44.6	44.6	91	42.1	0	0	---	0.00	30.054 
00:50	44.5	44.5	44.5	92	42.3	0	0	---	0.00	30.054 
00:55	44.5	44.5	44.5	92	42.3	0	0	---	0.00	30.054 
01:00	44.3	44.3	44.3	92	42.1	0	0	---	0.00	30.050 
01:05	44.3	44.3	44.3	92	42.1	0	0	---	0.00	30.050 
01:10	44.3	44.3	44.3	92	42.1	0	0	---	0.00	30.050 
01:15	44.2	44.2	44.2	92	42.0	0	0	---	0.00	30.054 
01:20	44.2	44.2	44.2	92	42.0	0	0	---	0.00	30.054 
01:25	44.1	44.1	44.1	92	41.9	0	0	---	0.00	30.054 
01:30	44.1	44.1	44.1	92	41.9	0	0	---	0.00	30.057 
01:35	43.9	43.9	43.9	92	41.7	0	0	---	0.00	30.057 
01:40	43.8	43.8	43.8	92	41.6	0	0	---	0.00	30.057 
01:45	43.8	43.8	43.8	92	41.6	0	0	---	0.00	30.059 
01:50	43.8	43.8	43.8	92	41.6	0	0	---	0.00	30.059 
01:55	43.6	43.6	43.6	92	41.4	0	0	---	0.00	30.059 
02:00	43.6	43.6	43.6	92	41.4	0	0	---	0.00	30.063 
02:05	43.5	43.5	43.5	92	41.3	0	0	---	0.00	30.063 
02:10	43.3	43.3	43.3	92	41.1	0	0	---	0.00	30.063 
02:15	43.3	43.3	43.3	92	41.1	0	0	---	0.00	30.070 
02:20	43.2	43.2	43.2	92	41.0	0	0	---	0.00	30.070 
02:25	43.1	43.1	43.1	92	40.9	0	0	---	0.00	30.070 
02:30	43.1	43.1	43.1	92	40.9	0	0	---	0.00	30.067 
02:35	42.9	42.9	42.9	92	40.7	0	0	---	0.00	30.067 
02:40	42.8	42.8	42.8	92	40.6	0	0	---	0.00	30.067 
02:45	42.8	42.8	42.8	92	40.6	0	0	---	0.00	30.062 
02:50	42.6	42.6	42.6	92	40.4	0	0	---	0.00	30.062 
02:55	42.6	42.6	42.6	93	40.7	0	0	---	0.00	30.062 
03:00	42.6	42.6	42.6	93	40.7	0	0	---	0.00	30.066 
03:05	42.5	42.5	42.5	93	40.6	0	0	---	0.00	30.066 
03:10	42.3	42.3	42.3	93	40.4	0	0	---	0.00	30.066 
03:15	42.3	42.3	42.3	93	40.4	0	0	---	0.00	30.065 
03:20	42.2	42.2	42.2	93	40.3	0	0	---	0.00	30.065 
03:25	42.1	42.1	42.1	93	40.2	0	0	---	0.00	30.065 
03:30	42.1	42.1	42.1	93	40.2	0	0	---	0.00	30.071 
03:35	42.1	42.1	42.1	93	40.2	0	0	---	0.00	30.071 
03:40	42.1	42.1	42.1	93	40.2	0	0	---	0.00	30.071 
03:45	41.9	41.9	41.9	93	40.0	0	0	---	0.00	30.073 
03:50	41.9	41.9	41.9	93	40.0	0	0	---	0.00	30.073 
03:55	41.8	41.8	41.8	93	39.9	0	0	---	0.00	30.073 
04:00	41.6	41.6	41.6	93	39.7	0	0	---	0.00	30.077 
04:05	41.6	41.6	41.6	93	39.7	0	0	---	0.00	30.077 
04:10	41.5	41.5	41.5	93	39.6	0	0	---	0.00	30.077 
04:15	41.5	41.5	41.5	93	39.6	0	0	---	0.00	30.078 
04:20	41.3	41.3	41.3	93	39.4	0	0	---	0.00	30.078 
04:25	41.2	41.2	41.2	93	39.3	0	0	---	0.00	30.078 
04:30	41.2	41.2	41.2	93	39.3	0	0	---	0.00	30.084 
04:35	41.2	41.2	41.2	93	39.3	0	0	---	0.00	30.084 
04:40	41.1	41.1	41.1	93	39.2	0	0	---	0.00	30.084 
04:45	41.1	41.1	41.1	93	39.2	0	0	---	0.00	30.087 
04:50	41.2	41.2	41.2	93	39.3	0	0	---	0.00	30.087 
04:55	41.2	41.2	41.2	93	39.3	0	0	---	0.00	30.087 
05:00	41.2	41.2	41.2	93	39.3	0	0	---	0.00	30.093 
05:05	41.1	41.1	41.1	93	39.2	0	0	---	0.00	30.093 
05:10	40.8	40.8	40.8	93	38.9	0	0	---	0.00	30.093 
05:15	40.8	40.8	40.8	93	38.9	0	0	---	0.00	30.099 
05:20	40.6	40.6	40.6	93	38.7	0	0	---	0.00	30.099 
05:25	40.6	40.6	40.6	93	38.7	0	0	---	0.00	30.099 
05:30	40.6	40.6	40.6	93	38.7	0	0	---	0.00	30.100 
05:35	40.6	40.6	40.6	93	38.7	0	0	---	0.00	30.100 
05:40	40.5	40.5	40.5	93	38.6	0	0	---	0.00	30.100 
05:45	40.5	40.5	40.5	93	38.6	0	0	---	0.00	30.102 
05:50	40.3	40.3	40.3	93	38.4	0	0	---	0.00	30.102 
05:55	40.3	40.3	40.3	94	38.7	0	0	---	0.00	30.102 
06:00	40.6	40.6	40.6	94	39.0	0	0	---	0.00	30.098 
06:05	40.6	40.6	40.6	94	39.0	0	0	---	0.00	30.098 
06:10	40.6	40.6	40.6	94	39.0	0	0	---	0.00	30.098 
06:15	40.5	40.5	40.5	94	38.9	0	0	---	0.00	30.106 
06:20	40.5	40.5	40.5	94	38.9	0	0	---	0.00	30.106 
06:25	40.3	40.3	40.3	94	38.7	0	0	---	0.00	30.106 
06:30	40.2	40.2	40.2	94	38.6	0	0	---	0.00	30.108 
06:35	40.3	40.3	40.3	94	38.7	0	0	---	0.00	30.108 
06:40	40.3	40.3	40.3	94	38.7	0	0	---	0.00	30.108 
06:45	40.2	40.2	40.2	94	38.6	0	0	---	0.00	30.114 
06:50	40.2	40.2	40.2	94	38.6	0	0	---	0.00	30.114 
06:55	40.1	40.1	40.1	94	38.5	0	0	---	0.00	30.114 
07:00	40.1	40.1	40.1	94	38.5	0	0	---	0.00	30.111 
07:05	40.1	40.1	40.1	94	38.5	0	0	---	0.00	30.111 
07:10	39.9	39.9	39.9	94	38.3	0	0	---	0.00	30.111 
07:15	39.9	39.9	39.9	94	38.3	0	0	---	0.00	30.118 
07:20	39.9	39.9	39.9	94	38.3	0	0	---	0.00	30.118 
07:25	39.9	39.9	39.9	94	38.3	0	0	---	0.00	30.118 
07:30	39.9	39.9	39.9	94	38.3	0	0	---	0.00	30.118 
07:35	39.9	39.9	39.9	94	38.3	0	0	---	0.00	30.118 
07:40	40.1	40.1	40.1	94	38.5	0	0	---	0.00	30.118 
07:45	40.1	40.1	40.1	94	38.5	0	0	---	0.00	30.124 
07:50	40.2	40.2	40.2	94	38.6	0	0	---	0.00	30.124 
07:55	40.2	40.2	40.2	94	38.6	0	0	---	0.00	30.124 
08:00	40.5	40.5	40.5	94	38.9	0	0	---	0.00	30.135 
08:05	40.8	40.8	40.8	95	39.5	0	0	---	0.00	30.135 
08:10	41.3	41.3	41.3	95	40.0	0	0	---	0.00	30.135 
08:15	41.9	41.9	41.9	95	40.6	0	0	---	0.00	30.142 
08:20	42.6	42.6	42.6	95	41.3	0	0	---	0.00	30.142 
08:25	43.5	43.5	43.5	96	42.4	0	0	---	0.00	30.142 
08:30	44.5	44.5	44.5	95	43.2	0	0	---	0.00	30.144 
08:35	45.4	45.4	45.4	96	44.3	0	0	---	0.00	30.144 
08:40	46.8	46.8	46.8	96	45.7	0	0	---	0.00	30.144 
08:45	48.2	48.2	48.2	96	47.1	0	0	---	0.00	30.146 
08:50	49.2	49.2	49.2	96	48.1	0	0	---	0.00	30.146 
08:55	49.6	49.6	49.6	95	48.2	0	0	---	0.00	30.146 
09:00	49.9	49.9	49.9	95	48.5	0	0	---	0.00	30.148 
09:05	50.4	50.4	50.4	94	48.7	0	0	---	0.00	30.148 
09:10	51.3	51.3	51.3	93	49.3	0	0	---	0.00	30.148 
09:15	52.5	52.5	52.5	92	50.2	0	0	---	0.00	30.147 
09:20	53.5	53.5	53.5	88	50.0	0	1	68	0.00	30.147 
09:25	54.7	54.7	54.7	84	50.0	0	0	---	0.00	30.147 
09:30	55.7	55.7	55.7	81	50.0	0	0	---	0.00	30.145 
09:35	56.7	56.7	56.7	78	49.9	0	0	---	0.00	30.145 
09:40	57.8	57.8	57.8	75	49.9	0	0	---	0.00	30.145 
09:45	58.9	58.9	58.9	71	49.5	0	0	---	0.00	30.154 
09:50	59.9	59.9	59.9	68	49.3	0	0	---	0.00	30.154 
09:55	60.7	60.7	60.7	68	50.1	0	0	---	0.00	30.154 
10:00	61.3	61.3	61.3	65	49.4	0	1	68	0.00	30.154 
10:05	62.0	62.0	62.0	66	50.5	0	1	68	0.00	30.154 
10:10	62.0	62.0	62.0	65	50.1	0	2	68	0.00	30.154 
10:15	62.0	62.0	62.0	66	50.5	0	2	68	0.00	30.151 
10:20	62.0	62.0	62.0	65	50.1	0	2	68	0.00	30.151 
10:25	62.0	62.0	62.0	64	49.7	1	2	68	0.00	30.151 
10:30	62.1	62.1	62.1	63	49.3	0	2	68	0.00	30.146 
10:35	62.4	62.4	62.4	63	49.6	0	2	68	0.00	30.146 
10:40	62.7	62.7	62.7	65	50.8	0	1	68	0.00	30.146 
10:45	63.2	63.2	63.2	64	50.8	0	2	135	0.00	30.145 
10:50	63.5	63.5	63.5	62	50.2	0	2	135	0.00	30.145 
10:55	63.7	63.7	63.7	61	50.0	0	2	135	0.00	30.145 
11:00	63.9	63.9	63.9	61	50.2	0	1	135	0.00	30.147 
11:05	63.7	63.7	63.7	60	49.5	1	3	135	0.00	30.147 
11:10	63.7	63.7	63.7	60	49.5	0	1	135	0.00	30.147 
11:15	63.9	63.9	63.9	61	50.2	0	1	135	0.00	30.148 
11:20	64.2	64.2	64.2	60	50.0	0	2	135	0.00	30.148 
11:25	64.3	64.3	64.3	60	50.1	0	3	135	0.00	30.148 
11:30	64.5	64.5	64.5	57	48.9	0	2	135	0.00	30.147 
11:35	64.7	64.7	64.7	55	48.2	1	2	135	0.00	30.147 
11:40	64.8	64.8	64.8	54	47.8	0	1	158	0.00	30.147 
11:45	65.2	65.2	65.2	56	49.1	1	4	158	0.00	30.140 
11:50	65.3	65.3	65.3	54	48.2	0	2	112	0.00	30.140 
11:55	65.8	65.8	65.8	53	48.2	1	2	112	0.00	30.140 
12:00	66.1	66.1	66.1	53	48.5	0	2	112	0.00	30.136 
12:05	66.3	66.3	66.3	53	48.6	1	4	112	0.00	30.136 
12:10	66.4	66.4	66.4	51	47.7	0	2	112	0.00	30.136 
12:15	66.6	66.6	66.6	50	47.4	0	2	180	0.00	30.138 
12:20	66.9	66.9	66.9	49	47.1	0	2	180	0.00	30.138 
12:25	67.3	67.3	67.3	51	48.5	0	4	135	0.00	30.138 
12:30	67.4	67.4	67.4	49	47.6	1	3	112	0.00	30.134 
12:35	67.6	67.6	67.6	47	46.6	1	4	112	0.00	30.134 
12:40	67.9	67.9	67.9	49	48.0	0	2	112	0.00	30.134 
12:45	68.3	68.3	68.3	47	47.3	1	3	112	0.00	30.133 
12:50	68.6	68.6	68.6	48	48.1	0	3	112	0.00	30.133 
12:55	68.8	68.8	68.8	47	47.7	1	4	112	0.00	30.133 
13:00	68.8	68.8	68.8	45	46.6	0	3	112	0.00	30.133 
13:05	68.9	68.9	68.9	43	45.5	1	3	112	0.00	30.133 
13:10	69.1	69.1	69.1	45	46.9	0	2	112	0.00	30.133 
13:15	69.1	69.1	69.1	47	48.0	0	3	112	0.00	30.127 
13:20	69.3	69.3	69.3	47	48.2	0	1	112	0.00	30.127 
13:25	69.4	69.4	69.4	46	47.7	0	1	112	0.00	30.127 
13:30	69.6	69.6	69.6	45	47.3	0	2	112	0.00	30.122 
13:35	69.8	69.8	69.8	41	45.0	0	1	112	0.00	30.122 
13:40	69.9	69.9	69.9	40	44.5	0	1	90	0.00	30.122 
13:45	69.9	69.9	69.9	41	45.1	0	2	90	0.00	30.119 
13:50	70.1	70.1	70.1	42	45.9	0	1	112	0.00	30.119 
13:55	70.3	70.3	70.3	42	46.1	0	2	112	0.00	30.119 
14:00	70.4	70.4	70.4	42	46.2	0	2	112	0.00	30.112 
14:05	70.4	70.4	70.4	39	44.2	0	2	112	0.00	30.112 
14:10	70.6	70.6	70.6	39	44.4	0	3	112	0.00	30.112 
14:15	70.6	70.6	70.6	37	43.1	0	2	158	0.00	30.107 
14:20	70.6	70.6	70.6	37	43.1	1	4	90	0.00	30.107 
14:25	70.8	70.8	70.8	36	42.5	1	4	90	0.00	30.107 
14:30	70.9	70.9	70.9	36	42.6	0	2	90	0.00	30.104 
14:35	71.1	71.1	71.1	34	41.3	1	3	90	0.00	30.104 
14:40	71.1	71.1	71.1	35	42.0	0	2	90	0.00	30.104 
14:45	71.1	71.1	71.1	34	41.3	0	3	90	0.00	30.104 
14:50	71.1	71.1	71.1	34	41.3	1	4	90	0.00	30.104 
14:55	71.1	71.1	71.1	35	42.0	1	4	90	0.00	30.104 
15:00	71.3	71.3	71.3	33	40.7	0	2	90	0.00	30.103 
15:05	71.5	71.5	71.5	35	42.4	0	3	90	0.00	30.103 
15:10	71.5	71.5	71.5	33	40.9	0	2	90	0.00	30.103 
15:15	71.5	71.5	71.5	35	42.4	0	1	90	0.00	30.102 
15:20	71.3	71.3	71.3	34	41.5	0	1	90	0.00	30.102 
15:25	71.1	71.1	71.1	34	41.3	0	2	90	0.00	30.102 
15:30	71.1	71.1	71.1	33	40.5	0	3	90	0.00	30.103 
15:35	71.1	71.1	71.1	32	39.7	0	2	90	0.00	30.103 
15:40	71.1	71.1	71.1	32	39.7	0	1	90	0.00	30.103 
15:45	71.1	71.1	71.1	33	40.5	0	1	90	0.00	30.104 
15:50	71.1	71.1	71.1	34	41.3	0	2	90	0.00	30.104 
15:55	71.1	71.1	71.1	35	42.0	0	1	90	0.00	30.104 
16:00	70.9	70.9	70.9	35	41.9	0	1	90	0.00	30.105 
16:05	70.9	70.9	70.9	35	41.9	0	1	90	0.00	30.105 
16:10	70.8	70.8	70.8	35	41.8	0	1	90	0.00	30.105 
16:15	70.6	70.6	70.6	35	41.6	0	1	90	0.00	30.106 
16:20	70.4	70.4	70.4	35	41.4	0	1	90	0.00	30.106 
16:25	70.3	70.3	70.3	35	41.3	0	1	90	0.00	30.106 
16:30	70.3	70.3	70.3	35	41.3	0	1	90	0.00	30.107 
16:35	70.1	70.1	70.1	36	41.9	0	1	90	0.00	30.107 
16:40	69.9	69.9	69.9	36	41.7	0	1	90	0.00	30.107 
16:45	69.9	69.9	69.9	37	42.4	0	1	90	0.00	30.108 
16:50	69.8	69.8	69.8	37	42.3	0	1	90	0.00	30.108 
16:55	69.4	69.4	69.4	38	42.7	0	1	90	0.00	30.108 
17:00	69.3	69.3	69.3	39	43.3	0	1	90	0.00	30.108 
17:05	68.9	68.9	68.9	39	42.9	0	1	90	0.00	30.108 
17:10	68.4	68.4	68.4	40	43.1	0	1	90	0.00	30.108 
17:15	68.1	68.1	68.1	41	43.5	0	0	---	0.00	30.112 
17:20	67.4	67.4	67.4	43	44.1	0	0	---	0.00	30.112 
17:25	66.8	66.8	66.8	45	44.8	0	0	---	0.00	30.112 
17:30	66.0	66.0	66.0	45	44.0	0	0	---	0.00	30.114 
17:35	65.3	65.3	65.3	46	44.0	0	0	---	0.00	30.114 
17:40	64.7	64.7	64.7	49	45.1	0	0	---	0.00	30.114 
17:45	63.9	63.9	63.9	49	44.4	0	0	---	0.00	30.117 
17:50	63.2	63.2	63.2	49	43.7	0	0	---	0.00	30.117 
17:55	62.6	62.6	62.6	52	44.7	0	0	---	0.00	30.117 
18:00	61.8	61.8	61.8	52	44.0	0	0	---	0.00	30.124 
18:05	61.0	61.0	61.0	53	43.7	0	0	---	0.00	30.124 
18:10	60.5	60.5	60.5	55	44.2	0	0	---	0.00	30.124 
18:15	59.9	59.9	59.9	55	43.7	0	0	---	0.00	30.130 
18:20	59.5	59.5	59.5	57	44.3	0	0	---	0.00	30.130 
18:25	59.0	59.0	59.0	58	44.2	0	0	---	0.00	30.130 
18:30	58.6	58.6	58.6	58	43.9	0	0	---	0.00	30.133 
18:35	58.0	58.0	58.0	60	44.2	0	0	---	0.00	30.133 
18:40	57.5	57.5	57.5	61	44.2	0	0	---	0.00	30.133 
18:45	57.0	57.0	57.0	62	44.1	0	0	---	0.00	30.136 
18:50	56.7	56.7	56.7	64	44.7	0	0	---	0.00	30.136 
18:55	56.5	56.5	56.5	65	44.9	0	0	---	0.00	30.136 
19:00	56.0	56.0	56.0	66	44.8	0	0	---	0.00	30.140 
19:05	55.6	55.6	55.6	67	44.8	0	0	---	0.00	30.140 
19:10	55.3	55.3	55.3	68	44.9	0	0	---	0.00	30.140 
19:15	55.0	55.0	55.0	68	44.6	0	0	---	0.00	30.143 
19:20	54.7	54.7	54.7	69	44.7	0	0	---	0.00	30.143 
19:25	54.4	54.4	54.4	70	44.8	0	0	---	0.00	30.143 
19:30	54.1	54.1	54.1	71	44.9	0	0	---	0.00	30.144 
19:35	53.8	53.8	53.8	72	45.0	0	0	---	0.00	30.144 
19:40	53.5	53.5	53.5	72	44.7	0	0	---	0.00	30.144 
19:45	53.2	53.2	53.2	73	44.8	0	0	---	0.00	30.149 
19:50	52.9	52.9	52.9	73	44.5	0	0	---	0.00	30.149 
19:55	52.6	52.6	52.6	73	44.2	0	0	---	0.00	30.149 
20:00	52.3	52.3	52.3	73	43.9	0	0	---	0.00	30.149 
20:05	52.0	52.0	52.0	74	44.0	0	0	---	0.00	30.149 
20:10	51.9	51.9	51.9	75	44.2	0	0	---	0.00	30.149 
20:15	51.6	51.6	51.6	77	44.6	0	0	---	0.00	30.135 
20:20	51.4	51.4	51.4	77	44.4	0	0	---	0.00	30.135 
20:25	51.3	51.3	51.3	78	44.7	0	0	---	0.00	30.135 
20:30	51.1	51.1	51.1	79	44.8	0	0	---	0.00	30.140 
20:35	51.0	51.0	51.0	79	44.7	0	0	---	0.00	30.140 
20:40	50.8	50.8	50.8	80	44.9	0	0	---	0.00	30.140 
20:45	50.8	50.8	50.8	80	44.9	0	0	---	0.00	30.140 
20:50	50.7	50.7	50.7	80	44.8	0	0	---	0.00	30.140 
20:55	50.5	50.5	50.5	81	44.9	0	0	---	0.00	30.140 
21:00	50.4	50.4	50.4	81	44.8	0	0	---	0.00	30.143 
21:05	50.2	50.2	50.2	81	44.6	0	0	---	0.00	30.143 
21:10	50.1	50.1	50.1	81	44.5	0	0	---	0.00	30.143 
21:15	49.9	49.9	49.9	81	44.3	0	0	---	0.00	30.133 
21:20	49.8	49.8	49.8	81	44.2	0	0	---	0.00	30.133 
21:25	49.8	49.8	49.8	82	44.5	0	0	---	0.00	30.133 
21:30	49.8	49.8	49.8	82	44.5	0	0	---	0.00	30.138 
21:35	49.6	49.6	49.6	82	44.3	0	0	---	0.00	30.138 
21:40	49.6	49.6	49.6	82	44.3	0	0	---	0.00	30.138 
21:45	49.5	49.5	49.5	82	44.2	0	0	---	0.00	30.137 
21:50	49.4	49.4	49.4	82	44.1	0	0	---	0.00	30.137 
21:55	49.2	49.2	49.2	83	44.3	0	0	---	0.00	30.137 
22:00	49.1	49.1	49.1	83	44.2	0	0	---	0.00	30.138 
22:05	48.9	48.9	48.9	83	44.0	0	0	---	0.00	30.138 
22:10	48.8	48.8	48.8	83	43.9	0	0	---	0.00	30.138 
22:15	48.6	48.6	48.6	83	43.7	0	0	---	0.00	30.136 
22:20	48.6	48.6	48.6	84	44.0	0	0	---	0.00	30.136 
22:25	48.5	48.5	48.5	84	43.9	0	0	---	0.00	30.136 
22:30	48.3	48.3	48.3	84	43.7	0	0	---	0.00	30.136 
22:35	48.3	48.3	48.3	84	43.7	0	0	---	0.00	30.136 
22:40	48.2	48.2	48.2	84	43.6	0	0	---	0.00	30.136 
22:45	48.2	48.2	48.2	85	43.9	0	0	---	0.00	30.133 
22:50	48.2	48.2	48.2	85	43.9	0	0	---	0.00	30.133 
22:55	48.0	48.0	48.0	85	43.7	0	0	---	0.00	30.133 
23:00	48.0	48.0	48.0	85	43.7	0	0	---	0.00	30.133 
23:05	48.0	48.0	48.0	85	43.7	0	0	---	0.00	30.133 
23:10	48.0	48.0	48.0	85	43.7	0	0	---	0.00	30.133 
23:15	48.0	48.0	48.0	85	43.7	0	0	---	0.00	30.132 
23:20	48.0	48.0	48.0	85	43.7	0	0	---	0.00	30.132 
23:25	48.0	48.0	48.0	85	43.7	0	0	---	0.00	30.132 
23:30	47.9	47.9	47.9	85	43.6	0	0	---	0.00	30.129 
23:35	47.9	47.9	47.9	85	43.6	0	0	---	0.00	30.129 
23:40	47.7	47.7	47.7	85	43.4	0	0	---	0.00	30.129 
23:45	47.7	47.7	47.7	86	43.7	0	0	---	0.00	30.132 
23:50	47.6	47.6	47.6	86	43.6	0	0	---	0.00	30.132 
23:55	47.6	47.6	47.6	86	43.6	0	0	---	0.00	30.132 

CoCoRaHS
IN-AL-39
A2 Web Hosting
Creative Commons License
GoDaddy
search engine by freefind advanced

loaded 2018-11-20 14:43:55 • last modified 2010-11-18 10:43:29
Privacy PolicyDisclaimer
• wx.awcolley.com is powered by PmWiki v.2002016 •
• all content (unless otherwise noted) © 2018 A W Colley